createdAt,value
2019-02-05T00:04:05.974Z,1.61
2019-02-05T00:09:09.318Z,1.56
2019-02-05T00:14:11.112Z,1.67
2019-02-05T00:19:13.206Z,1.75
2019-02-05T00:24:14.786Z,1.71
2019-02-05T00:29:16.447Z,1.72
2019-02-05T00:34:18.036Z,1.79
2019-02-05T00:39:19.760Z,1.78
2019-02-05T00:44:21.443Z,1.77
2019-02-05T00:49:23.135Z,1.78
2019-02-05T00:54:24.700Z,1.74
2019-02-05T00:59:26.489Z,1.71
2019-02-05T01:04:28.160Z,1.72
2019-02-05T01:09:29.739Z,1.68
2019-02-05T01:14:31.320Z,1.67
2019-02-05T01:19:33.288Z,1.67
2019-02-05T01:24:34.972Z,1.66
2019-02-05T01:29:36.555Z,1.60
2019-02-05T01:34:38.159Z,1.58
2019-02-05T01:39:39.736Z,1.55
2019-02-05T01:44:41.941Z,1.57
2019-02-05T01:49:43.658Z,1.59
2019-02-05T01:54:45.336Z,1.60
2019-02-05T01:59:47.032Z,1.53
2019-02-05T02:04:49.118Z,1.52
2019-02-05T02:09:50.707Z,1.51
2019-02-05T02:14:52.369Z,1.50
2019-02-05T02:19:54.151Z,1.55
2019-02-05T02:24:55.830Z,1.53
2019-02-05T02:29:57.411Z,1.59
2019-02-05T02:34:58.968Z,1.58
2019-02-05T02:40:00.548Z,1.57
2019-02-05T02:45:04.267Z,1.53
2019-02-05T02:50:07.258Z,1.50
2019-02-05T02:55:09.313Z,1.47
2019-02-05T03:00:13.469Z,1.44
2019-02-05T03:05:17.170Z,1.43
2019-02-05T03:10:24.075Z,1.38
2019-02-05T03:15:25.858Z,1.41
2019-02-05T03:20:27.484Z,1.37
2019-02-05T03:25:29.356Z,1.42
2019-02-05T03:30:30.937Z,1.41
2019-02-05T03:35:32.501Z,1.43
2019-02-05T03:41:07.155Z,1.48
2019-02-05T03:46:12.850Z,1.43
2019-02-05T03:51:38.279Z,1.40
2019-02-05T03:57:30.590Z,1.47
2019-02-05T04:03:01.815Z,1.55
2019-02-05T04:08:17.943Z,1.62
2019-02-05T04:13:31.659Z,1.61
2019-02-05T04:19:21.834Z,1.56
2019-02-05T04:24:56.649Z,1.58
2019-02-05T04:30:25.168Z,1.59
2019-02-05T04:36:11.805Z,1.57
2019-02-05T04:41:58.052Z,1.45
2019-02-05T04:47:29.832Z,1.36
2019-02-05T04:53:28.972Z,1.40
2019-02-05T04:59:21.736Z,1.46
2019-02-05T05:05:07.184Z,1.47
2019-02-05T05:10:08.961Z,1.55
2019-02-05T05:15:10.751Z,1.54
2019-02-05T05:20:12.501Z,1.51
2019-02-05T05:25:14.207Z,1.49
2019-02-05T05:30:17.391Z,1.47
2019-02-05T05:35:18.970Z,1.49
2019-02-05T05:40:21.314Z,1.44
2019-02-05T05:45:23.012Z,1.53
2019-02-05T05:50:24.685Z,1.57
2019-02-05T05:55:26.574Z,1.53
2019-02-05T06:00:28.610Z,1.54
2019-02-05T06:05:30.193Z,1.53
2019-02-05T06:10:31.889Z,1.49
2019-02-05T06:15:35.822Z,1.51
2019-02-05T06:20:37.194Z,1.48
2019-02-05T06:25:38.776Z,1.49
2019-02-05T06:30:40.370Z,1.48
2019-02-05T06:35:42.065Z,1.48
2019-02-05T06:40:43.754Z,1.45
2019-02-05T06:45:45.332Z,1.45
2019-02-05T06:50:47.316Z,1.45
2019-02-05T06:55:48.926Z,1.51
2019-02-05T07:00:50.607Z,1.53
2019-02-05T07:05:52.382Z,1.53
2019-02-05T07:10:53.958Z,1.55
2019-02-05T07:15:55.551Z,1.58
2019-02-05T07:20:57.141Z,1.59
2019-02-05T07:25:58.729Z,1.66
2019-02-05T07:31:00.408Z,1.68
2019-02-05T07:36:02.201Z,1.74
2019-02-05T07:41:03.903Z,1.83
2019-02-05T07:46:05.701Z,1.90
2019-02-05T07:51:07.487Z,1.96
2019-02-05T07:56:09.190Z,2.01
2019-02-05T08:01:10.872Z,2.13
2019-02-05T08:06:12.577Z,2.24
2019-02-05T08:11:14.266Z,2.43
2019-02-05T08:16:16.006Z,2.54
2019-02-05T08:21:18.121Z,2.66
2019-02-05T08:26:19.816Z,2.72
2019-02-05T08:31:21.383Z,2.86
2019-02-05T08:36:23.343Z,2.96
2019-02-05T08:41:24.900Z,3.03
2019-02-05T08:46:26.460Z,3.10
2019-02-05T08:51:28.111Z,3.23
2019-02-05T08:56:29.788Z,3.33
2019-02-05T09:01:31.486Z,3.44
2019-02-05T09:06:35.407Z,3.65
2019-02-05T09:11:36.764Z,3.77
2019-02-05T09:16:38.351Z,3.88
2019-02-05T09:21:39.917Z,4.13
2019-02-05T09:26:41.599Z,4.24
2019-02-05T09:31:43.183Z,4.24
2019-02-05T09:36:44.759Z,4.44
2019-02-05T09:41:46.468Z,4.49
2019-02-05T09:46:48.044Z,4.49
2019-02-05T09:51:49.775Z,4.42
2019-02-05T09:56:51.531Z,4.37
2019-02-05T10:01:53.110Z,4.25
2019-02-05T10:06:54.708Z,4.25
2019-02-05T10:11:56.303Z,4.19
2019-02-05T10:16:57.905Z,4.21
2019-02-05T10:21:59.511Z,4.25
2019-02-05T10:27:01.234Z,4.27
2019-02-05T10:32:03.487Z,4.26
2019-02-05T10:37:05.258Z,4.33
2019-02-05T10:42:06.925Z,4.51
2019-02-05T10:47:08.804Z,4.74
2019-02-05T10:52:10.476Z,4.80
2019-02-05T10:57:12.189Z,4.74
2019-02-05T11:02:14.050Z,4.55
2019-02-05T11:07:15.629Z,4.49
2019-02-05T11:12:17.302Z,4.36
2019-02-05T11:17:18.971Z,4.24
2019-02-05T11:22:20.648Z,4.29
2019-02-05T11:27:22.272Z,4.35
2019-02-05T11:32:24.133Z,4.30
2019-02-05T11:37:25.810Z,4.30
2019-02-05T11:42:27.398Z,4.33
2019-02-05T11:47:29.199Z,4.48
2019-02-05T11:52:30.854Z,4.58
2019-02-05T11:57:32.454Z,4.51
2019-02-05T12:02:34.172Z,4.46
2019-02-05T12:07:36.761Z,4.43
2019-02-05T12:12:38.448Z,4.47
2019-02-05T12:17:40.162Z,4.58
2019-02-05T12:22:41.881Z,4.68
2019-02-05T12:27:43.597Z,4.89
2019-02-05T12:32:45.312Z,5.16
2019-02-05T12:37:47.001Z,5.49
2019-02-05T12:42:48.704Z,5.75
2019-02-05T12:47:50.407Z,5.76
2019-02-05T12:52:52.302Z,5.76
2019-02-05T12:57:55.038Z,5.80
2019-02-05T13:02:57.017Z,5.85
2019-02-05T13:07:58.721Z,5.82
2019-02-05T13:13:00.494Z,5.81
2019-02-05T13:18:02.222Z,5.77
2019-02-05T13:23:05.176Z,5.58
2019-02-05T13:28:08.871Z,5.85
2019-02-05T13:33:12.339Z,6.14
2019-02-05T13:38:14.053Z,6.16
2019-02-05T13:43:15.844Z,6.21
2019-02-05T13:48:17.527Z,6.76
2019-02-05T13:53:19.224Z,7.27
2019-02-05T13:58:20.799Z,6.85
2019-02-05T14:03:23.090Z,6.43
2019-02-05T14:08:24.666Z,6.11
2019-02-05T14:13:26.339Z,5.78
2019-02-05T14:18:27.906Z,5.48
2019-02-05T14:23:29.592Z,5.29
2019-02-05T14:28:31.156Z,5.04
2019-02-05T14:33:32.738Z,5.19
2019-02-05T14:38:34.395Z,5.41
2019-02-05T14:43:35.962Z,5.16
2019-02-05T14:48:37.539Z,5.12
2019-02-05T14:53:39.200Z,5.06
2019-02-05T14:58:40.873Z,4.74
2019-02-05T15:03:42.527Z,4.45
2019-02-05T15:08:44.351Z,4.34
2019-02-05T15:13:46.305Z,4.24
2019-02-05T15:18:48.040Z,4.21
2019-02-05T15:28:59.526Z,4.01
2019-02-05T15:34:04.063Z,3.98
2019-02-05T15:39:13.266Z,3.95
2019-02-05T15:44:15.194Z,3.87
2019-02-05T15:49:16.789Z,3.86
2019-02-05T15:54:18.360Z,3.80
2019-02-05T15:59:20.372Z,3.75
2019-02-05T16:04:22.078Z,3.71
2019-02-05T16:09:23.645Z,3.67
2019-02-05T16:14:25.417Z,3.67
2019-02-05T16:19:42.708Z,3.68
2019-02-05T16:24:44.591Z,3.66
2019-02-05T16:29:46.156Z,3.61
2019-02-05T16:34:47.726Z,3.58
2019-02-05T16:39:49.444Z,3.60
2019-02-05T16:44:51.165Z,3.69
2019-02-05T16:49:52.729Z,3.64
2019-02-05T16:54:54.459Z,3.63
2019-02-05T16:59:56.151Z,3.57
2019-02-05T17:04:58.294Z,3.56
2019-02-05T17:09:59.928Z,3.61
2019-02-05T17:15:01.601Z,3.66
2019-02-05T17:20:06.199Z,3.73
2019-02-05T17:25:09.910Z,3.71
2019-02-05T17:30:17.588Z,3.70
2019-02-05T17:35:19.486Z,3.71
2019-02-05T17:40:22.262Z,3.81
2019-02-05T17:45:29.124Z,3.84
2019-02-05T17:50:30.833Z,3.82
2019-02-05T17:55:33.245Z,3.83
2019-02-05T18:00:47.882Z,3.80
2019-02-05T18:05:49.618Z,3.79
2019-02-05T18:10:51.308Z,3.75
2019-02-05T18:15:53.480Z,3.61
2019-02-05T18:20:55.484Z,3.52
2019-02-05T18:25:57.877Z,3.53
2019-02-05T18:31:00.327Z,3.57
2019-02-05T18:36:04.005Z,3.58
2019-02-05T18:41:06.541Z,3.55
2019-02-05T18:46:12.611Z,3.53
2019-02-05T18:51:15.018Z,3.51
2019-02-05T18:56:19.090Z,3.51
2019-02-05T19:01:21.885Z,3.50
2019-02-05T19:06:25.098Z,3.45
2019-02-05T19:11:28.546Z,3.43
2019-02-05T19:16:32.259Z,3.38
2019-02-05T19:21:34.580Z,3.35
2019-02-05T19:26:48.553Z,3.34
2019-02-05T19:31:52.320Z,3.34
2019-02-05T19:36:55.685Z,3.34
2019-02-05T19:41:58.235Z,3.32
2019-02-05T19:47:07.763Z,3.31
2019-02-05T19:52:11.081Z,3.24
2019-02-05T19:57:14.496Z,3.26
2019-02-05T20:02:17.853Z,3.27
2019-02-05T20:07:20.668Z,3.28
2019-02-05T20:12:23.313Z,3.27
2019-02-05T20:17:26.136Z,3.29
2019-02-05T20:22:29.638Z,3.29
2019-02-05T20:27:33.811Z,3.32
2019-02-05T20:32:37.543Z,3.29
2019-02-05T20:37:41.066Z,3.28
2019-02-05T20:42:44.717Z,3.24
2019-02-05T20:47:48.534Z,3.29
2019-02-05T20:52:51.497Z,3.32
2019-02-05T20:57:54.007Z,3.29
2019-02-05T21:02:56.044Z,3.29
2019-02-05T21:07:58.081Z,3.33
2019-02-05T21:13:00.826Z,3.38
2019-02-05T21:18:03.875Z,3.41
2019-02-05T21:23:05.713Z,3.46
2019-02-05T21:28:07.542Z,3.47
2019-02-05T21:33:09.402Z,3.43
2019-02-05T21:38:11.522Z,3.45
2019-02-05T21:43:13.112Z,3.45
2019-02-05T21:48:15.061Z,3.45
2019-02-05T21:53:17.062Z,3.49
2019-02-05T21:58:18.736Z,3.52
2019-02-05T22:03:20.300Z,3.53
2019-02-05T22:08:21.878Z,3.52
2019-02-05T22:13:23.572Z,3.49
2019-02-05T22:18:25.162Z,3.48
2019-02-05T22:23:26.734Z,3.54
2019-02-05T22:28:28.428Z,3.52
2019-02-05T22:33:30.008Z,3.53
2019-02-05T22:38:32.180Z,3.54
2019-02-05T22:43:33.896Z,3.53
2019-02-05T22:48:35.497Z,3.53
2019-02-05T22:53:37.200Z,3.52
2019-02-05T22:58:38.807Z,3.52
2019-02-05T23:03:43.849Z,3.55
2019-02-05T23:08:45.868Z,3.59
2019-02-05T23:13:47.957Z,3.60
2019-02-05T23:18:49.644Z,3.56
2019-02-05T23:23:51.361Z,3.59
2019-02-05T23:28:53.139Z,3.58
2019-02-05T23:33:54.686Z,3.58
2019-02-05T23:38:56.385Z,3.54
2019-02-05T23:43:58.052Z,3.53
2019-02-05T23:48:59.699Z,3.51
2019-02-05T23:54:01.379Z,3.49
2019-02-05T23:59:03.288Z,3.50
